createdAt,value
2019-05-29T00:00:08.379Z,11.10
2019-05-29T00:02:37.528Z,11.08
2019-05-29T00:05:07.968Z,11.11
2019-05-29T00:07:36.657Z,11.07
2019-05-29T00:10:06.235Z,10.99
2019-05-29T00:12:35.217Z,10.95
2019-05-29T00:15:03.974Z,10.90
2019-05-29T00:17:32.802Z,10.91
2019-05-29T00:20:01.441Z,10.90
2019-05-29T00:22:30.062Z,10.86
2019-05-29T00:24:58.686Z,10.88
2019-05-29T00:27:27.431Z,10.86
2019-05-29T00:29:56.026Z,10.88
2019-05-29T00:32:24.693Z,10.86
2019-05-29T00:34:53.378Z,10.84
2019-05-29T00:37:21.975Z,10.88
2019-05-29T00:39:51.086Z,10.90
2019-05-29T00:42:19.774Z,10.90
2019-05-29T00:44:48.763Z,10.86
2019-05-29T00:47:18.354Z,10.79
2019-05-29T00:49:47.645Z,10.77
2019-05-29T00:52:16.705Z,10.73
2019-05-29T00:54:45.481Z,10.69
2019-05-29T00:57:15.321Z,10.60
2019-05-29T00:59:44.371Z,10.57
2019-05-29T01:02:13.832Z,10.63
2019-05-29T01:04:42.495Z,10.63
2019-05-29T01:07:12.277Z,10.60
2019-05-29T01:09:40.949Z,10.58
2019-05-29T01:12:10.719Z,10.59
2019-05-29T01:14:49.796Z,10.59
2019-05-29T01:17:09.627Z,10.54
2019-05-29T01:19:38.369Z,10.46
2019-05-29T01:22:06.966Z,10.43
2019-05-29T01:24:35.607Z,10.47
2019-05-29T01:27:04.226Z,10.44
2019-05-29T01:29:33.010Z,10.39
2019-05-29T01:32:01.570Z,10.32
2019-05-29T01:34:30.173Z,10.24
2019-05-29T01:36:58.657Z,10.27
2019-05-29T01:39:27.732Z,10.31
2019-05-29T01:41:56.324Z,10.33
2019-05-29T01:44:24.884Z,10.34
2019-05-29T01:46:53.482Z,10.26
2019-05-29T01:49:22.049Z,10.23
2019-05-29T01:51:50.827Z,10.16
2019-05-29T01:54:19.707Z,10.07
2019-05-29T01:56:48.374Z,10.11
2019-05-29T01:59:17.751Z,10.18
2019-05-29T02:01:46.346Z,10.12
2019-05-29T02:04:15.815Z,10.08
2019-05-29T02:06:44.477Z,10.09
2019-05-29T02:09:12.965Z,10.09
2019-05-29T02:11:41.635Z,10.05
2019-05-29T02:14:10.335Z,10.05
2019-05-29T02:16:38.833Z,10.05
2019-05-29T02:19:07.446Z,10.06
2019-05-29T02:21:36.148Z,10.10
2019-05-29T02:24:04.738Z,10.09
2019-05-29T02:26:33.343Z,10.07
2019-05-29T02:29:02.004Z,10.02
2019-05-29T02:31:30.579Z,9.89
2019-05-29T02:33:59.185Z,9.82
2019-05-29T02:36:28.695Z,9.76
2019-05-29T02:38:57.364Z,9.80
2019-05-29T02:41:27.945Z,9.86
2019-05-29T02:43:56.391Z,9.84
2019-05-29T02:46:26.431Z,9.76
2019-05-29T02:48:55.220Z,9.71
2019-05-29T02:51:24.283Z,9.64
2019-05-29T02:53:52.881Z,9.61
2019-05-29T02:56:22.937Z,9.59
2019-05-29T02:58:51.738Z,9.63
2019-05-29T03:01:21.550Z,9.62
2019-05-29T03:03:50.733Z,9.62
2019-05-29T03:06:19.295Z,9.57
2019-05-29T03:08:47.906Z,9.56
2019-05-29T03:11:16.523Z,9.56
2019-05-29T03:13:45.066Z,9.57
2019-05-29T03:16:13.710Z,9.55
2019-05-29T03:18:42.280Z,9.53
2019-05-29T03:21:10.880Z,9.59
2019-05-29T03:23:39.460Z,9.50
2019-05-29T03:26:08.134Z,9.52
2019-05-29T03:28:38.262Z,9.46
2019-05-29T03:31:07.036Z,9.45
2019-05-29T03:33:44.808Z,9.43
2019-05-29T03:36:05.893Z,9.42
2019-05-29T03:38:35.030Z,9.43
2019-05-29T03:41:03.779Z,9.44
2019-05-29T03:43:35.049Z,9.44
2019-05-29T03:46:02.541Z,9.48
2019-05-29T03:48:32.415Z,9.50
2019-05-29T03:51:01.513Z,9.48
2019-05-29T03:53:31.688Z,9.50
2019-05-29T03:56:00.352Z,9.50
2019-05-29T03:58:30.806Z,9.45
2019-05-29T04:00:59.251Z,9.47
2019-05-29T04:03:28.968Z,9.43
2019-05-29T04:05:57.713Z,9.54
2019-05-29T04:08:27.428Z,9.61
2019-05-29T04:10:56.454Z,9.64
2019-05-29T04:13:25.019Z,9.68
2019-05-29T04:15:53.578Z,9.69
2019-05-29T04:18:22.092Z,9.72
2019-05-29T04:20:51.116Z,9.71
2019-05-29T04:23:19.607Z,9.72
2019-05-29T04:25:48.105Z,9.74
2019-05-29T04:28:16.718Z,9.84
2019-05-29T04:30:45.296Z,9.84
2019-05-29T04:33:13.893Z,9.85
2019-05-29T04:35:42.479Z,9.88
2019-05-29T04:38:11.068Z,9.96
2019-05-29T04:40:39.941Z,9.96
2019-05-29T04:43:08.460Z,10.07
2019-05-29T04:45:39.163Z,10.14
2019-05-29T04:48:07.203Z,10.11
2019-05-29T04:50:37.981Z,10.24
2019-05-29T04:53:05.936Z,10.35
2019-05-29T04:55:34.811Z,10.35
2019-05-29T04:58:03.450Z,10.43
2019-05-29T05:00:33.103Z,10.52
2019-05-29T05:03:02.370Z,10.62
2019-05-29T05:05:31.230Z,10.68
2019-05-29T05:07:59.925Z,10.79
2019-05-29T05:10:36.246Z,10.90
2019-05-29T05:13:06.991Z,10.95
2019-05-29T05:15:36.355Z,10.94
2019-05-29T05:18:05.668Z,11.03
2019-05-29T05:20:34.176Z,11.07
2019-05-29T05:23:03.116Z,11.13
2019-05-29T05:25:32.219Z,11.19
2019-05-29T05:28:00.857Z,11.26
2019-05-29T05:30:30.369Z,11.28
2019-05-29T05:32:59.135Z,11.41
2019-05-29T05:35:27.833Z,11.54
2019-05-29T05:37:58.956Z,11.54
2019-05-29T05:40:27.759Z,11.61
2019-05-29T05:42:56.415Z,11.72
2019-05-29T05:45:25.014Z,11.79
2019-05-29T05:47:57.759Z,11.83
2019-05-29T05:50:24.188Z,11.93
2019-05-29T05:52:55.088Z,11.97
2019-05-29T05:55:23.784Z,11.95
2019-05-29T05:57:52.474Z,11.95
2019-05-29T06:00:31.926Z,12.02
2019-05-29T06:03:08.434Z,12.04
2019-05-29T06:05:38.207Z,12.16
2019-05-29T06:08:06.818Z,12.21
2019-05-29T06:10:36.095Z,12.31
2019-05-29T06:13:04.758Z,12.41
2019-05-29T06:15:34.273Z,12.43
2019-05-29T06:18:19.814Z,12.47
2019-05-29T06:20:34.597Z,12.55
2019-05-29T06:23:03.307Z,12.71
2019-05-29T06:25:33.619Z,12.79
2019-05-29T06:28:02.115Z,12.87
2019-05-29T06:30:30.705Z,12.94
2019-05-29T06:32:59.582Z,13.00
2019-05-29T06:35:28.209Z,13.06
2019-05-29T06:37:56.704Z,13.07
2019-05-29T06:40:44.368Z,13.08
2019-05-29T06:43:35.723Z,13.29
2019-05-29T06:46:04.331Z,13.44
2019-05-29T06:48:46.662Z,13.47
2019-05-29T06:51:03.116Z,13.62
2019-05-29T06:53:31.699Z,13.56
2019-05-29T06:56:01.764Z,13.53
2019-05-29T06:58:30.500Z,13.56
2019-05-29T07:00:59.124Z,13.74
2019-05-29T07:03:27.746Z,13.82
2019-05-29T07:05:59.089Z,13.89
2019-05-29T07:08:38.109Z,13.89
2019-05-29T07:10:58.543Z,14.05
2019-05-29T07:13:27.224Z,13.96
2019-05-29T07:15:55.799Z,13.95
2019-05-29T07:18:24.292Z,14.09
2019-05-29T07:20:52.817Z,14.19
2019-05-29T07:23:21.329Z,14.30
2019-05-29T07:25:51.903Z,14.48
2019-05-29T07:28:32.479Z,14.41
2019-05-29T07:31:03.421Z,14.50
2019-05-29T07:33:31.321Z,14.70
2019-05-29T07:36:05.842Z,14.87
2019-05-29T07:38:34.532Z,14.86
2019-05-29T07:41:03.145Z,15.02
2019-05-29T07:43:31.793Z,14.86
2019-05-29T07:46:00.409Z,15.06
2019-05-29T07:48:34.116Z,15.15
2019-05-29T07:51:06.986Z,15.16
2019-05-29T07:53:33.768Z,15.12
2019-05-29T07:56:02.376Z,15.23
2019-05-29T07:58:30.944Z,15.44
2019-05-29T08:01:11.612Z,15.49
2019-05-29T08:03:29.748Z,15.36
2019-05-29T08:05:58.352Z,15.33
2019-05-29T08:08:26.837Z,15.37
2019-05-29T08:10:55.355Z,15.42
2019-05-29T08:13:27.733Z,15.40
2019-05-29T08:16:02.660Z,15.62
2019-05-29T08:18:29.338Z,15.85
2019-05-29T08:20:57.933Z,16.08
2019-05-29T08:23:26.613Z,15.87
2019-05-29T08:25:55.338Z,15.63
2019-05-29T08:28:23.871Z,15.77
2019-05-29T08:30:56.233Z,15.70
2019-05-29T08:33:22.835Z,15.81
2019-05-29T08:36:00.119Z,16.05
2019-05-29T08:38:26.320Z,16.14
2019-05-29T08:40:54.889Z,16.12
2019-05-29T08:43:23.445Z,16.09
2019-05-29T08:45:53.711Z,16.35
2019-05-29T08:48:22.272Z,16.51
2019-05-29T08:50:51.980Z,16.58
2019-05-29T08:53:20.618Z,16.54
2019-05-29T08:55:52.705Z,16.47
2019-05-29T08:58:21.511Z,16.55
2019-05-29T09:00:53.599Z,16.66
2019-05-29T09:03:20.468Z,16.84
2019-05-29T09:06:06.138Z,16.94
2019-05-29T09:08:19.420Z,16.97
2019-05-29T09:10:49.622Z,17.00
2019-05-29T09:13:18.354Z,16.90
2019-05-29T09:15:47.620Z,17.09
2019-05-29T09:18:17.048Z,17.02
2019-05-29T09:21:02.233Z,16.97
2019-05-29T09:23:16.882Z,17.17
2019-05-29T09:25:45.553Z,17.17
2019-05-29T09:28:14.693Z,17.18
2019-05-29T09:30:44.132Z,17.24
2019-05-29T09:33:15.312Z,17.43
2019-05-29T09:35:43.209Z,17.52
2019-05-29T09:38:11.801Z,17.46
2019-05-29T09:40:40.507Z,17.29
2019-05-29T09:43:09.176Z,17.53
2019-05-29T09:45:37.808Z,17.49
2019-05-29T09:48:06.621Z,17.31
2019-05-29T09:50:49.683Z,17.34
2019-05-29T09:53:05.535Z,17.49
2019-05-29T09:55:34.147Z,17.91
2019-05-29T09:58:02.782Z,17.93
2019-05-29T10:00:31.358Z,17.85
2019-05-29T10:03:01.327Z,17.82
2019-05-29T10:05:29.974Z,18.03
2019-05-29T10:08:02.317Z,18.12
2019-05-29T10:10:30.883Z,17.98
2019-05-29T10:12:59.981Z,18.04
2019-05-29T10:15:28.637Z,17.99
2019-05-29T10:17:58.434Z,18.00
2019-05-29T10:20:27.116Z,18.35
2019-05-29T10:22:56.823Z,18.54
2019-05-29T10:25:25.728Z,18.23
2019-05-29T10:27:54.259Z,18.52
2019-05-29T10:30:22.889Z,18.58
2019-05-29T10:32:52.899Z,18.91
2019-05-29T10:35:23.252Z,18.83
2019-05-29T10:37:53.007Z,18.46
2019-05-29T10:40:21.675Z,18.54
2019-05-29T10:42:51.485Z,18.58
2019-05-29T10:45:22.572Z,18.77
2019-05-29T10:47:52.330Z,18.98
2019-05-29T10:50:21.329Z,18.82
2019-05-29T10:52:50.010Z,19.08
2019-05-29T10:55:20.961Z,18.92
2019-05-29T10:57:50.766Z,18.74
2019-05-29T11:00:19.784Z,19.03
2019-05-29T11:02:49.969Z,19.48
2019-05-29T11:05:18.575Z,19.60
2019-05-29T11:07:47.668Z,19.60
2019-05-29T11:10:16.251Z,19.29
2019-05-29T11:12:44.791Z,19.43
2019-05-29T11:15:21.263Z,19.59
2019-05-29T11:17:43.646Z,19.93
2019-05-29T11:20:12.305Z,20.07
2019-05-29T11:22:40.905Z,20.18
2019-05-29T11:25:21.673Z,20.31
2019-05-29T11:27:39.745Z,20.48
2019-05-29T11:30:09.400Z,20.74
2019-05-29T11:32:38.019Z,20.74
2019-05-29T11:35:06.573Z,20.34
2019-05-29T11:37:35.173Z,20.06
2019-05-29T11:40:04.636Z,20.30
2019-05-29T11:42:33.266Z,20.19
2019-05-29T11:45:01.853Z,20.35
2019-05-29T11:47:30.436Z,20.49
2019-05-29T11:50:03.504Z,20.81
2019-05-29T11:52:39.827Z,20.37
2019-05-29T11:55:03.310Z,20.06
2019-05-29T11:57:30.054Z,20.78
2019-05-29T12:00:05.898Z,21.18
2019-05-29T12:02:29.079Z,21.50
2019-05-29T12:05:01.160Z,23.36
2019-05-29T12:07:27.979Z,22.48
2019-05-29T12:09:57.540Z,23.59
2019-05-29T12:12:26.202Z,24.50
2019-05-29T12:15:06.022Z,25.27
2019-05-29T12:17:24.999Z,26.00
2019-05-29T12:19:54.195Z,25.18
2019-05-29T12:22:22.768Z,26.02
2019-05-29T12:24:52.492Z,26.11
2019-05-29T12:27:21.405Z,24.59
2019-05-29T12:29:50.254Z,23.30
2019-05-29T12:32:19.053Z,22.23
2019-05-29T12:34:53.680Z,22.02
2019-05-29T12:37:18.095Z,23.06
2019-05-29T12:39:46.854Z,24.41
2019-05-29T12:42:15.676Z,25.77
2019-05-29T12:44:44.344Z,26.34
2019-05-29T12:47:12.904Z,25.57
2019-05-29T12:49:41.457Z,25.96
2019-05-29T12:52:10.291Z,25.76
2019-05-29T12:54:39.025Z,26.14
2019-05-29T12:57:07.577Z,25.62
2019-05-29T12:59:37.773Z,24.79
2019-05-29T13:02:06.266Z,23.88
2019-05-29T13:05:05.122Z,25.63
2019-05-29T13:07:05.125Z,26.91
2019-05-29T13:09:34.575Z,26.80
2019-05-29T13:12:04.670Z,28.22
2019-05-29T13:14:33.403Z,28.10
2019-05-29T13:17:03.048Z,25.84
2019-05-29T13:19:31.729Z,26.99
2019-05-29T13:22:01.402Z,27.42
2019-05-29T13:24:30.303Z,26.20
2019-05-29T13:26:59.602Z,23.63
2019-05-29T13:29:28.379Z,24.40
2019-05-29T13:31:57.962Z,24.51
2019-05-29T13:34:27.209Z,25.04
2019-05-29T13:36:59.814Z,26.55
2019-05-29T13:39:29.191Z,27.54
2019-05-29T13:41:56.408Z,27.12
2019-05-29T13:44:24.985Z,25.68
2019-05-29T13:46:53.718Z,24.83
2019-05-29T13:49:22.313Z,24.22
2019-05-29T13:51:50.888Z,24.30
2019-05-29T13:54:19.487Z,24.60
2019-05-29T13:56:48.175Z,25.73
2019-05-29T13:59:16.729Z,25.58
2019-05-29T14:01:48.209Z,26.59
2019-05-29T14:04:15.532Z,26.91
2019-05-29T14:06:44.192Z,26.67
2019-05-29T14:09:12.753Z,26.36
2019-05-29T14:11:41.387Z,25.82
2019-05-29T14:14:13.334Z,26.34
2019-05-29T14:16:40.300Z,25.91
2019-05-29T14:19:08.898Z,25.81
2019-05-29T14:21:37.470Z,25.93
2019-05-29T14:24:23.482Z,25.80
2019-05-29T14:26:36.499Z,25.58
2019-05-29T14:29:05.956Z,25.40
2019-05-29T14:31:34.781Z,24.59
2019-05-29T14:34:03.383Z,25.03
2019-05-29T14:36:31.910Z,25.20
2019-05-29T14:39:01.542Z,24.58
2019-05-29T14:41:30.172Z,24.26
2019-05-29T14:43:58.773Z,25.10
2019-05-29T14:46:27.388Z,26.10
2019-05-29T14:48:55.982Z,25.97
2019-05-29T14:51:24.745Z,26.80
2019-05-29T14:53:53.344Z,26.44
2019-05-29T14:56:21.979Z,27.16
2019-05-29T14:58:50.578Z,26.17
2019-05-29T15:01:19.209Z,26.20
2019-05-29T15:03:47.781Z,26.73
2019-05-29T15:06:16.601Z,26.37
2019-05-29T15:08:45.111Z,25.42
2019-05-29T15:11:14.104Z,25.99
2019-05-29T15:13:42.782Z,27.29
2019-05-29T15:16:12.771Z,27.43
2019-05-29T15:18:41.534Z,27.68
2019-05-29T15:21:10.968Z,26.31
2019-05-29T15:23:39.907Z,26.25
2019-05-29T15:26:09.573Z,25.92
2019-05-29T15:28:38.164Z,26.66
2019-05-29T15:31:07.045Z,27.27
2019-05-29T15:33:36.855Z,26.49
2019-05-29T15:36:06.451Z,25.79
2019-05-29T15:38:36.033Z,25.74
2019-05-29T15:41:04.696Z,25.71
2019-05-29T15:43:33.240Z,25.87
2019-05-29T15:46:02.532Z,25.86
2019-05-29T15:48:31.018Z,27.02
2019-05-29T15:50:59.511Z,26.84
2019-05-29T15:53:28.076Z,26.24
2019-05-29T15:55:56.610Z,25.69
2019-05-29T15:58:25.189Z,25.35
2019-05-29T16:00:53.766Z,24.89
2019-05-29T16:03:22.360Z,24.92
2019-05-29T16:05:50.930Z,25.49
2019-05-29T16:08:19.538Z,25.98
2019-05-29T16:10:48.038Z,25.35
2019-05-29T16:13:17.301Z,24.33
2019-05-29T16:15:45.966Z,24.23
2019-05-29T16:18:26.191Z,24.35
2019-05-29T16:20:44.750Z,24.23
2019-05-29T16:23:28.304Z,24.04
2019-05-29T16:25:43.536Z,23.76
2019-05-29T16:28:13.072Z,23.54
2019-05-29T16:30:41.660Z,23.59
2019-05-29T16:33:10.902Z,23.91
2019-05-29T16:35:39.562Z,24.55
2019-05-29T16:38:08.160Z,25.58
2019-05-29T16:40:36.676Z,26.09
2019-05-29T16:43:05.207Z,26.23
2019-05-29T16:45:33.740Z,25.87
2019-05-29T16:48:02.711Z,25.08
2019-05-29T16:50:31.259Z,24.67
2019-05-29T16:52:59.788Z,24.37
2019-05-29T16:55:28.363Z,24.14
2019-05-29T16:57:56.982Z,23.83
2019-05-29T17:00:25.543Z,23.94
2019-05-29T17:02:54.043Z,23.82
2019-05-29T17:05:24.162Z,23.63
2019-05-29T17:07:52.863Z,23.31
2019-05-29T17:10:24.742Z,23.14
2019-05-29T17:12:53.355Z,23.29
2019-05-29T17:15:22.837Z,22.96
2019-05-29T17:17:51.454Z,22.81
2019-05-29T17:20:23.255Z,22.66
2019-05-29T17:22:51.948Z,22.34
2019-05-29T17:25:20.744Z,22.35
2019-05-29T17:27:50.782Z,22.20
2019-05-29T17:30:23.050Z,21.93
2019-05-29T17:32:51.766Z,21.91
2019-05-29T17:35:21.221Z,21.94
2019-05-29T17:37:49.909Z,21.83
2019-05-29T17:40:19.163Z,21.85
2019-05-29T17:42:47.842Z,21.87
2019-05-29T17:45:20.908Z,21.95
2019-05-29T17:47:46.755Z,21.90
2019-05-29T17:50:19.872Z,21.86
2019-05-29T17:52:45.649Z,21.91
2019-05-29T17:55:14.173Z,21.94
2019-05-29T17:57:42.862Z,21.91
2019-05-29T18:00:18.065Z,21.93
2019-05-29T18:02:51.824Z,21.65
2019-05-29T18:05:18.312Z,21.57
2019-05-29T18:07:47.247Z,21.53
2019-05-29T18:10:18.839Z,21.43
2019-05-29T18:12:46.095Z,21.40
2019-05-29T18:15:14.666Z,21.32
2019-05-29T18:17:44.368Z,21.24
2019-05-29T18:20:14.745Z,21.16
2019-05-29T18:22:43.195Z,21.09
2019-05-29T18:25:12.132Z,20.97
2019-05-29T18:27:40.695Z,20.96
2019-05-29T18:30:09.469Z,20.89
2019-05-29T18:32:38.211Z,20.82
2019-05-29T18:35:07.960Z,20.73
2019-05-29T18:37:36.731Z,20.63
2019-05-29T18:40:12.669Z,20.57
2019-05-29T18:42:40.485Z,20.42
2019-05-29T18:45:20.213Z,20.41
2019-05-29T18:47:41.599Z,20.39
2019-05-29T18:50:10.820Z,20.31
2019-05-29T18:52:39.466Z,20.28
2019-05-29T18:55:08.179Z,20.23
2019-05-29T18:57:36.781Z,20.14
2019-05-29T19:00:08.495Z,20.11
2019-05-29T19:02:37.024Z,20.00
2019-05-29T19:05:06.126Z,19.95
2019-05-29T19:07:34.712Z,19.84
2019-05-29T19:10:06.707Z,19.85
2019-05-29T19:12:35.693Z,19.79
2019-05-29T19:15:06.277Z,19.75
2019-05-29T19:17:34.791Z,19.68
2019-05-29T19:20:03.510Z,19.62
2019-05-29T19:22:32.645Z,19.61
2019-05-29T19:25:01.556Z,19.54
2019-05-29T19:27:39.081Z,19.54
2019-05-29T19:30:00.667Z,19.50
2019-05-29T19:32:29.398Z,19.34
2019-05-29T19:34:57.993Z,19.28
2019-05-29T19:37:27.817Z,19.21
2019-05-29T19:39:56.498Z,19.18
2019-05-29T19:42:26.122Z,19.15
2019-05-29T19:44:54.777Z,19.19
2019-05-29T19:47:24.507Z,19.11
2019-05-29T19:49:53.363Z,19.07
2019-05-29T19:52:22.069Z,19.12
2019-05-29T19:54:50.804Z,19.07
2019-05-29T19:57:19.846Z,19.03
2019-05-29T19:59:48.465Z,19.03
2019-05-29T20:02:17.807Z,18.94
2019-05-29T20:04:46.412Z,18.82
2019-05-29T20:07:15.294Z,18.80
2019-05-29T20:09:43.934Z,18.71
2019-05-29T20:12:14.175Z,18.69
2019-05-29T20:14:42.890Z,18.62
2019-05-29T20:17:11.490Z,18.60
2019-05-29T20:19:41.037Z,18.48
2019-05-29T20:22:09.637Z,18.49
2019-05-29T20:24:39.060Z,18.39
2019-05-29T20:27:07.746Z,18.34
2019-05-29T20:29:36.475Z,18.37
2019-05-29T20:32:05.071Z,18.45
2019-05-29T20:34:34.687Z,18.43
2019-05-29T20:37:03.361Z,18.28
2019-05-29T20:39:32.963Z,18.15
2019-05-29T20:42:02.269Z,18.07
2019-05-29T20:44:30.983Z,18.00
2019-05-29T20:46:59.692Z,17.96
2019-05-29T20:49:28.280Z,17.94
2019-05-29T20:51:56.781Z,17.98
2019-05-29T20:54:25.332Z,17.99
2019-05-29T20:56:53.986Z,17.91
2019-05-29T20:59:22.513Z,17.89
2019-05-29T21:01:51.204Z,17.81
2019-05-29T21:04:19.812Z,17.77
2019-05-29T21:06:48.388Z,17.73
2019-05-29T21:09:17.022Z,17.71
2019-05-29T21:11:45.610Z,17.73
2019-05-29T21:14:14.537Z,17.64
2019-05-29T21:16:46.318Z,17.56
2019-05-29T21:19:14.901Z,17.65
2019-05-29T21:21:44.564Z,17.52
2019-05-29T21:24:13.209Z,17.46
2019-05-29T21:26:43.126Z,17.41
2019-05-29T21:29:11.802Z,17.42
2019-05-29T21:31:41.633Z,17.43
2019-05-29T21:34:10.252Z,17.40
2019-05-29T21:36:39.938Z,17.38
2019-05-29T21:39:08.553Z,17.38
2019-05-29T21:41:38.384Z,17.38
2019-05-29T21:44:07.007Z,17.35
2019-05-29T21:46:36.685Z,17.36
2019-05-29T21:49:05.353Z,17.38
2019-05-29T21:51:33.992Z,17.49
2019-05-29T21:54:02.537Z,17.47
2019-05-29T21:56:31.186Z,17.52
2019-05-29T21:59:03.846Z,17.50
2019-05-29T22:01:29.998Z,17.54
2019-05-29T22:03:58.891Z,17.58
2019-05-29T22:06:27.658Z,17.61
2019-05-29T22:08:56.164Z,17.58
2019-05-29T22:11:24.796Z,17.56
2019-05-29T22:13:54.189Z,17.54
2019-05-29T22:16:22.944Z,17.45
2019-05-29T22:18:52.774Z,17.36
2019-05-29T22:21:21.404Z,17.38
2019-05-29T22:23:51.015Z,17.26
2019-05-29T22:26:19.621Z,17.19
2019-05-29T22:28:48.198Z,17.15
2019-05-29T22:31:17.005Z,17.13
2019-05-29T22:33:45.584Z,17.14
2019-05-29T22:36:14.307Z,17.14
2019-05-29T22:38:43.056Z,17.11
2019-05-29T22:41:11.545Z,17.18
2019-05-29T22:43:40.138Z,17.26
2019-05-29T22:46:08.744Z,17.33
2019-05-29T22:48:37.285Z,17.32
2019-05-29T22:51:05.849Z,17.32
2019-05-29T22:53:34.335Z,17.32
2019-05-29T22:56:02.984Z,17.32
2019-05-29T22:58:31.511Z,17.31
2019-05-29T23:01:00.163Z,17.30
2019-05-29T23:03:28.866Z,17.30
2019-05-29T23:05:58.241Z,17.30
2019-05-29T23:08:26.893Z,17.28
2019-05-29T23:10:56.209Z,17.29
2019-05-29T23:13:24.795Z,17.19
2019-05-29T23:15:54.466Z,17.22
2019-05-29T23:18:23.188Z,17.20
2019-05-29T23:20:52.397Z,17.16
2019-05-29T23:23:21.102Z,17.16
2019-05-29T23:25:49.708Z,17.13
2019-05-29T23:28:18.287Z,17.18
2019-05-29T23:30:46.811Z,17.15
2019-05-29T23:33:15.343Z,17.11
2019-05-29T23:35:43.965Z,17.10
2019-05-29T23:38:12.503Z,17.11
2019-05-29T23:40:41.496Z,17.13
2019-05-29T23:43:10.036Z,17.10
2019-05-29T23:45:38.602Z,17.08
2019-05-29T23:48:07.511Z,17.07
2019-05-29T23:50:36.078Z,17.07
2019-05-29T23:53:04.635Z,17.06
2019-05-29T23:55:33.311Z,17.03
2019-05-29T23:58:02.116Z,17.01
